sensor_id;sensor_type;location;lat;lon;timestamp;pressure;altitude;pressure_sealevel;temperature;humidity
42761;BME280;31672;47.638;19.026;2024-01-06T00:04:32;99234.91;;;1.94;100.00
42761;BME280;31672;47.638;19.026;2024-01-06T00:09:36;99229.78;;;2.02;100.00
42761;BME280;31672;47.638;19.026;2024-01-06T00:14:39;99223.03;;;2.09;100.00
42761;BME280;31672;47.638;19.026;2024-01-06T00:19:47;99208.56;;;2.15;100.00
42761;BME280;31672;47.638;19.026;2024-01-06T00:24:54;99208.56;;;2.15;100.00
42761;BME280;31672;47.638;19.026;2024-01-06T00:29:57;99208.56;;;2.15;100.00
42761;BME280;31672;47.638;19.026;2024-01-06T00:35:01;99195.03;;;2.20;100.00
42761;BME280;31672;47.638;19.026;2024-01-06T00:40:05;99199.88;;;2.24;100.00
42761;BME280;31672;47.638;19.026;2024-01-06T00:45:09;99192.28;;;2.21;100.00
42761;BME280;31672;47.638;19.026;2024-01-06T00:50:12;99201.81;;;2.22;100.00
42761;BME280;31672;47.638;19.026;2024-01-06T00:55:16;99195.19;;;2.18;100.00
42761;BME280;31672;47.638;19.026;2024-01-06T01:00:20;99197.38;;;2.13;100.00
42761;BME280;31672;47.638;19.026;2024-01-06T01:05:24;99201.13;;;2.01;100.00
42761;BME280;31672;47.638;19.026;2024-01-06T01:10:27;99199.19;;;1.93;100.00
42761;BME280;31672;47.638;19.026;2024-01-06T01:15:31;99199.03;;;1.85;100.00
42761;BME280;31672;47.638;19.026;2024-01-06T01:20:34;99195.03;;;1.81;100.00
42761;BME280;31672;47.638;19.026;2024-01-06T01:25:38;99191.59;;;1.80;100.00
42761;BME280;31672;47.638;19.026;2024-01-06T01:30:42;99174.06;;;1.91;100.00
42761;BME280;31672;47.638;19.026;2024-01-06T01:35:45;99166.75;;;2.04;100.00
42761;BME280;31672;47.638;19.026;2024-01-06T01:40:49;99176.53;;;2.21;100.00
42761;BME280;31672;47.638;19.026;2024-01-06T01:45:54;99172.13;;;2.41;100.00
42761;BME280;31672;47.638;19.026;2024-01-06T01:50:58;99158.41;;;2.57;100.00
42761;BME280;31672;47.638;19.026;2024-01-06T01:56:02;99154.63;;;2.69;100.00
42761;BME280;31672;47.638;19.026;2024-01-06T02:01:08;99153.63;;;2.80;100.00
42761;BME280;31672;47.638;19.026;2024-01-06T02:06:12;99141.59;;;2.87;100.00
42761;BME280;31672;47.638;19.026;2024-01-06T02:11:16;99142.81;;;2.92;100.00
42761;BME280;31672;47.638;19.026;2024-01-06T02:16:19;99136.97;;;2.99;100.00
42761;BME280;31672;47.638;19.026;2024-01-06T02:21:23;99142.63;;;3.04;100.00
42761;BME280;31672;47.638;19.026;2024-01-06T02:26:27;99139.81;;;3.15;100.00
42761;BME280;31672;47.638;19.026;2024-01-06T02:31:30;99123.19;;;3.24;100.00
42761;BME280;31672;47.638;19.026;2024-01-06T02:36:34;99123.94;;;3.34;100.00
42761;BME280;31672;47.638;19.026;2024-01-06T02:41:38;99123.22;;;3.42;100.00
42761;BME280;31672;47.638;19.026;2024-01-06T02:46:42;99115.56;;;3.48;100.00
42761;BME280;31672;47.638;19.026;2024-01-06T02:51:45;99106.94;;;3.56;100.00
42761;BME280;31672;47.638;19.026;2024-01-06T02:56:48;99108.31;;;3.60;100.00
42761;BME280;31672;47.638;19.026;2024-01-06T03:01:52;99100.63;;;3.67;100.00
42761;BME280;31672;47.638;19.026;2024-01-06T03:06:56;99092.28;;;3.71;100.00
42761;BME280;31672;47.638;19.026;2024-01-06T03:12:00;99084.66;;;3.78;100.00
42761;BME280;31672;47.638;19.026;2024-01-06T03:17:04;99090.41;;;3.82;100.00
42761;BME280;31672;47.638;19.026;2024-01-06T03:22:07;99083.34;;;3.82;100.00
42761;BME280;31672;47.638;19.026;2024-01-06T03:27:10;99085.69;;;3.85;100.00
42761;BME280;31672;47.638;19.026;2024-01-06T03:32:14;99069.38;;;3.82;100.00
42761;BME280;31672;47.638;19.026;2024-01-06T03:37:18;99080.13;;;3.88;100.00
42761;BME280;31672;47.638;19.026;2024-01-06T03:42:21;99086.72;;;3.92;100.00
42761;BME280;31672;47.638;19.026;2024-01-06T03:47:25;99076.22;;;3.92;100.00
42761;BME280;31672;47.638;19.026;2024-01-06T03:52:28;99077.03;;;3.93;100.00
42761;BME280;31672;47.638;19.026;2024-01-06T03:57:31;99082.81;;;3.96;100.00
42761;BME280;31672;47.638;19.026;2024-01-06T04:02:35;99070.34;;;3.98;100.00
42761;BME280;31672;47.638;19.026;2024-01-06T04:07:38;99077.44;;;4.06;100.00
42761;BME280;31672;47.638;19.026;2024-01-06T04:12:42;99079.78;;;4.09;100.00
42761;BME280;31672;47.638;19.026;2024-01-06T04:17:49;99081.94;;;4.14;100.00
42761;BME280;31672;47.638;19.026;2024-01-06T04:22:52;99099.59;;;4.21;100.00
42761;BME280;31672;47.638;19.026;2024-01-06T04:27:56;99087.28;;;4.22;100.00
42761;BME280;31672;47.638;19.026;2024-01-06T04:32:59;99084.81;;;4.20;100.00
42761;BME280;31672;47.638;19.026;2024-01-06T04:38:03;99082.47;;;4.17;100.00
42761;BME280;31672;47.638;19.026;2024-01-06T04:43:06;99092.31;;;4.15;100.00
42761;BME280;31672;47.638;19.026;2024-01-06T04:48:10;99109.09;;;4.14;100.00
42761;BME280;31672;47.638;19.026;2024-01-06T04:53:14;99112.53;;;4.15;100.00
42761;BME280;31672;47.638;19.026;2024-01-06T04:58:17;99098.69;;;4.13;100.00
42761;BME280;31672;47.638;19.026;2024-01-06T05:03:21;99093.16;;;4.16;100.00
42761;BME280;31672;47.638;19.026;2024-01-06T05:08:24;99090.69;;;4.14;100.00
42761;BME280;31672;47.638;19.026;2024-01-06T05:13:28;99079.63;;;4.11;100.00
42761;BME280;31672;47.638;19.026;2024-01-06T05:18:31;99083.91;;;4.12;100.00
42761;BME280;31672;47.638;19.026;2024-01-06T05:23:35;99079.31;;;4.14;100.00
42761;BME280;31672;47.638;19.026;2024-01-06T05:28:40;99071.59;;;4.12;100.00
42761;BME280;31672;47.638;19.026;2024-01-06T05:33:43;99081.81;;;4.15;100.00
42761;BME280;31672;47.638;19.026;2024-01-06T05:38:48;99073.09;;;4.15;100.00
42761;BME280;31672;47.638;19.026;2024-01-06T05:43:55;99079.00;;;4.17;100.00
42761;BME280;31672;47.638;19.026;2024-01-06T05:48:59;99080.00;;;4.16;100.00
42761;BME280;31672;47.638;19.026;2024-01-06T05:54:03;99100.88;;;4.17;100.00
42761;BME280;31672;47.638;19.026;2024-01-06T05:59:06;99095.59;;;4.17;100.00
42761;BME280;31672;47.638;19.026;2024-01-06T06:04:11;99101.41;;;4.21;100.00
42761;BME280;31672;47.638;19.026;2024-01-06T06:09:15;99106.19;;;4.25;100.00
42761;BME280;31672;47.638;19.026;2024-01-06T06:14:19;99104.06;;;4.29;100.00
42761;BME280;31672;47.638;19.026;2024-01-06T06:19:22;99109.69;;;4.34;100.00
42761;BME280;31672;47.638;19.026;2024-01-06T06:24:26;99102.63;;;4.35;100.00
42761;BME280;31672;47.638;19.026;2024-01-06T06:29:29;99110.53;;;4.35;100.00
42761;BME280;31672;47.638;19.026;2024-01-06T06:34:33;99113.97;;;4.35;100.00
42761;BME280;31672;47.638;19.026;2024-01-06T06:39:36;99104.28;;;4.36;100.00
42761;BME280;31672;47.638;19.026;2024-01-06T06:44:40;99111.19;;;4.37;100.00
42761;BME280;31672;47.638;19.026;2024-01-06T06:49:44;99105.09;;;4.36;100.00
42761;BME280;31672;47.638;19.026;2024-01-06T06:54:48;99119.06;;;4.37;100.00
42761;BME280;31672;47.638;19.026;2024-01-06T06:59:52;99113.34;;;4.41;100.00
42761;BME280;31672;47.638;19.026;2024-01-06T07:04:56;99109.75;;;4.42;100.00
42761;BME280;31672;47.638;19.026;2024-01-06T07:10:03;99116.34;;;4.46;100.00
42761;BME280;31672;47.638;19.026;2024-01-06T07:15:08;99117.19;;;4.47;100.00
42761;BME280;31672;47.638;19.026;2024-01-06T07:20:14;99116.03;;;4.49;100.00
42761;BME280;31672;47.638;19.026;2024-01-06T07:25:17;99115.91;;;4.51;100.00
42761;BME280;31672;47.638;19.026;2024-01-06T07:30:20;99106.84;;;4.53;100.00
42761;BME280;31672;47.638;19.026;2024-01-06T07:35:24;99107.50;;;4.55;100.00
42761;BME280;31672;47.638;19.026;2024-01-06T07:40:27;99108.50;;;4.54;100.00
42761;BME280;31672;47.638;19.026;2024-01-06T07:45:32;99106.03;;;4.53;100.00
42761;BME280;31672;47.638;19.026;2024-01-06T07:50:35;99102.25;;;4.55;100.00
42761;BME280;31672;47.638;19.026;2024-01-06T07:55:40;99117.91;;;4.57;100.00
42761;BME280;31672;47.638;19.026;2024-01-06T08:00:43;99111.81;;;4.56;100.00
42761;BME280;31672;47.638;19.026;2024-01-06T08:05:48;99103.94;;;4.56;100.00
42761;BME280;31672;47.638;19.026;2024-01-06T08:10:51;99097.69;;;4.57;100.00
42761;BME280;31672;47.638;19.026;2024-01-06T08:15:55;99103.75;;;4.58;100.00
42761;BME280;31672;47.638;19.026;2024-01-06T08:20:58;99100.47;;;4.56;100.00
42761;BME280;31672;47.638;19.026;2024-01-06T08:26:02;99107.22;;;4.59;100.00
42761;BME280;31672;47.638;19.026;2024-01-06T08:31:07;99113.13;;;4.61;100.00
42761;BME280;31672;47.638;19.026;2024-01-06T08:36:11;99106.06;;;4.61;100.00
42761;BME280;31672;47.638;19.026;2024-01-06T08:41:15;99108.22;;;4.66;100.00
42761;BME280;31672;47.638;19.026;2024-01-06T08:46:18;99119.13;;;4.71;100.00
42761;BME280;31672;47.638;19.026;2024-01-06T08:51:22;99107.31;;;4.75;100.00
42761;BME280;31672;47.638;19.026;2024-01-06T08:56:27;99111.25;;;4.79;100.00
42761;BME280;31672;47.638;19.026;2024-01-06T09:01:31;99126.28;;;4.87;100.00
42761;BME280;31672;47.638;19.026;2024-01-06T09:06:35;99119.03;;;4.89;100.00
42761;BME280;31672;47.638;19.026;2024-01-06T09:11:38;99115.13;;;4.93;100.00
42761;BME280;31672;47.638;19.026;2024-01-06T09:16:42;99112.50;;;4.93;100.00
42761;BME280;31672;47.638;19.026;2024-01-06T09:21:45;99105.91;;;4.97;100.00
42761;BME280;31672;47.638;19.026;2024-01-06T09:26:49;99101.63;;;4.96;100.00
42761;BME280;31672;47.638;19.026;2024-01-06T09:31:53;99104.09;;;4.97;100.00
42761;BME280;31672;47.638;19.026;2024-01-06T09:36:57;99094.56;;;4.96;100.00
42761;BME280;31672;47.638;19.026;2024-01-06T09:42:00;99092.59;;;4.98;100.00
42761;BME280;31672;47.638;19.026;2024-01-06T09:47:04;99086.34;;;4.99;100.00
42761;BME280;31672;47.638;19.026;2024-01-06T09:52:15;99078.28;;;5.01;100.00
42761;BME280;31672;47.638;19.026;2024-01-06T09:57:24;99075.34;;;5.04;100.00
42761;BME280;31672;47.638;19.026;2024-01-06T10:02:28;99075.66;;;5.09;100.00
42761;BME280;31672;47.638;19.026;2024-01-06T10:07:31;99065.66;;;5.13;100.00
42761;BME280;31672;47.638;19.026;2024-01-06T10:12:38;99074.72;;;5.18;100.00
42761;BME280;31672;47.638;19.026;2024-01-06T10:17:42;99086.59;;;5.22;100.00
42761;BME280;31672;47.638;19.026;2024-01-06T10:22:46;99084.13;;;5.29;100.00
42761;BME280;31672;47.638;19.026;2024-01-06T10:27:52;99083.16;;;5.30;100.00
42761;BME280;31672;47.638;19.026;2024-01-06T10:32:56;99077.53;;;5.33;100.00
42761;BME280;31672;47.638;19.026;2024-01-06T10:38:00;99085.47;;;5.41;100.00
42761;BME280;31672;47.638;19.026;2024-01-06T10:43:04;99078.88;;;5.45;100.00
42761;BME280;31672;47.638;19.026;2024-01-06T10:48:08;99072.66;;;5.46;100.00
42761;BME280;31672;47.638;19.026;2024-01-06T10:53:13;99055.16;;;5.45;100.00
42761;BME280;31672;47.638;19.026;2024-01-06T10:58:19;99051.88;;;5.43;100.00
42761;BME280;31672;47.638;19.026;2024-01-06T11:03:22;99036.41;;;5.40;100.00
42761;BME280;31672;47.638;19.026;2024-01-06T11:08:28;99026.00;;;5.38;100.00
42761;BME280;31672;47.638;19.026;2024-01-06T11:13:33;99024.06;;;5.41;100.00
42761;BME280;31672;47.638;19.026;2024-01-06T11:18:39;99010.38;;;5.37;100.00
42761;BME280;31672;47.638;19.026;2024-01-06T11:23:44;98996.88;;;5.32;100.00
42761;BME280;31672;47.638;19.026;2024-01-06T11:28:48;98986.50;;;5.30;100.00
42761;BME280;31672;47.638;19.026;2024-01-06T11:33:54;98978.59;;;5.30;100.00
42761;BME280;31672;47.638;19.026;2024-01-06T11:38:59;98970.06;;;5.28;100.00
42761;BME280;31672;47.638;19.026;2024-01-06T11:44:04;98965.94;;;5.34;100.00
42761;BME280;31672;47.638;19.026;2024-01-06T11:49:10;98947.16;;;5.37;100.00
42761;BME280;31672;47.638;19.026;2024-01-06T11:54:13;98935.13;;;5.43;100.00
42761;BME280;31672;47.638;19.026;2024-01-06T11:59:17;98935.47;;;5.48;100.00
42761;BME280;31672;47.638;19.026;2024-01-06T12:04:21;98937.59;;;5.52;100.00
42761;BME280;31672;47.638;19.026;2024-01-06T12:09:26;98921.78;;;5.52;100.00
42761;BME280;31672;47.638;19.026;2024-01-06T12:14:30;98924.09;;;5.55;100.00
42761;BME280;31672;47.638;19.026;2024-01-06T12:19:34;98922.09;;;5.57;100.00
42761;BME280;31672;47.638;19.026;2024-01-06T12:24:42;98918.63;;;5.57;100.00
42761;BME280;31672;47.638;19.026;2024-01-06T12:29:46;98911.72;;;5.56;100.00
42761;BME280;31672;47.638;19.026;2024-01-06T12:34:49;98923.44;;;5.53;100.00
42761;BME280;31672;47.638;19.026;2024-01-06T12:39:57;98909.44;;;5.53;100.00
42761;BME280;31672;47.638;19.026;2024-01-06T12:45:01;98910.25;;;5.53;100.00
42761;BME280;31672;47.638;19.026;2024-01-06T12:50:06;98922.09;;;5.57;100.00
42761;BME280;31672;47.638;19.026;2024-01-06T12:55:09;98918.81;;;5.55;100.00
42761;BME280;31672;47.638;19.026;2024-01-06T13:00:13;98920.44;;;5.56;100.00
42761;BME280;31672;47.638;19.026;2024-01-06T13:05:17;98920.44;;;5.56;100.00
42761;BME280;31672;47.638;19.026;2024-01-06T13:10:23;98929.69;;;5.52;100.00
42761;BME280;31672;47.638;19.026;2024-01-06T13:15:27;98939.06;;;5.55;100.00
42761;BME280;31672;47.638;19.026;2024-01-06T13:20:31;98931.34;;;5.53;100.00
42761;BME280;31672;47.638;19.026;2024-01-06T13:25:35;98930.53;;;5.53;100.00
42761;BME280;31672;47.638;19.026;2024-01-06T13:30:39;98930.19;;;5.56;100.00
42761;BME280;31672;47.638;19.026;2024-01-06T13:35:43;98931.50;;;5.60;100.00
42761;BME280;31672;47.638;19.026;2024-01-06T13:40:47;98923.41;;;5.61;100.00
42761;BME280;31672;47.638;19.026;2024-01-06T13:45:50;98927.38;;;5.66;100.00
42761;BME280;31672;47.638;19.026;2024-01-06T13:50:54;98925.56;;;5.66;100.00
42761;BME280;31672;47.638;19.026;2024-01-06T13:55:57;98929.00;;;5.67;100.00
42761;BME280;31672;47.638;19.026;2024-01-06T14:01:01;98928.00;;;5.68;100.00
42761;BME280;31672;47.638;19.026;2024-01-06T14:06:06;98925.88;;;5.71;100.00
42761;BME280;31672;47.638;19.026;2024-01-06T14:11:10;98916.16;;;5.72;100.00
42761;BME280;31672;47.638;19.026;2024-01-06T14:16:17;98906.94;;;5.68;100.00
42761;BME280;31672;47.638;19.026;2024-01-06T14:21:22;98903.97;;;5.62;100.00
42761;BME280;31672;47.638;19.026;2024-01-06T14:26:25;98897.88;;;5.62;100.00
42761;BME280;31672;47.638;19.026;2024-01-06T14:31:29;98905.28;;;5.67;100.00
42761;BME280;31672;47.638;19.026;2024-01-06T14:36:32;98893.13;;;5.66;100.00
42761;BME280;31672;47.638;19.026;2024-01-06T14:41:36;98892.13;;;5.67;100.00
42761;BME280;31672;47.638;19.026;2024-01-06T14:46:39;98899.03;;;5.68;100.00
42761;BME280;31672;47.638;19.026;2024-01-06T14:51:44;98913.84;;;5.69;100.00
42761;BME280;31672;47.638;19.026;2024-01-06T14:56:49;98926.03;;;5.70;100.00
42761;BME280;31672;47.638;19.026;2024-01-06T15:01:53;98921.44;;;5.72;100.00
42761;BME280;31672;47.638;19.026;2024-01-06T15:06:57;98908.56;;;5.69;100.00
42761;BME280;31672;47.638;19.026;2024-01-06T15:12:01;98910.22;;;5.70;100.00
42761;BME280;31672;47.638;19.026;2024-01-06T15:17:04;98911.53;;;5.74;100.00
42761;BME280;31672;47.638;19.026;2024-01-06T15:22:07;98905.44;;;5.73;100.00
42761;BME280;31672;47.638;19.026;2024-01-06T15:27:11;98899.03;;;5.76;100.00
42761;BME280;31672;47.638;19.026;2024-01-06T15:32:14;98898.34;;;5.74;100.00
42761;BME280;31672;47.638;19.026;2024-01-06T15:37:18;98891.13;;;5.76;100.00
42761;BME280;31672;47.638;19.026;2024-01-06T15:42:22;98881.22;;;5.78;100.00
42761;BME280;31672;47.638;19.026;2024-01-06T15:47:25;98878.59;;;5.78;100.00
42761;BME280;31672;47.638;19.026;2024-01-06T15:52:30;98878.41;;;5.79;100.00
42761;BME280;31672;47.638;19.026;2024-01-06T15:57:33;98875.94;;;5.78;100.00
42761;BME280;31672;47.638;19.026;2024-01-06T16:02:37;98880.88;;;5.81;100.00
42761;BME280;31672;47.638;19.026;2024-01-06T16:07:42;98877.25;;;5.82;100.00
42761;BME280;31672;47.638;19.026;2024-01-06T16:12:45;98872.94;;;5.81;100.00
42761;BME280;31672;47.638;19.026;2024-01-06T16:17:49;98877.91;;;5.84;100.00
42761;BME280;31672;47.638;19.026;2024-01-06T16:22:53;98877.91;;;5.84;100.00
42761;BME280;31672;47.638;19.026;2024-01-06T16:27:57;98877.91;;;5.84;100.00
42761;BME280;31672;47.638;19.026;2024-01-06T16:33:01;98879.91;;;5.82;100.00
42761;BME280;31672;47.638;19.026;2024-01-06T16:38:05;98875.28;;;5.84;100.00
42761;BME280;31672;47.638;19.026;2024-01-06T16:43:09;98871.00;;;5.83;100.00
42761;BME280;31672;47.638;19.026;2024-01-06T16:48:12;98863.59;;;5.78;100.00
42761;BME280;31672;47.638;19.026;2024-01-06T16:53:17;98863.41;;;5.80;100.00
42761;BME280;31672;47.638;19.026;2024-01-06T16:58:21;98871.13;;;5.81;100.00
42761;BME280;31672;47.638;19.026;2024-01-06T17:03:24;98865.88;;;5.81;100.00
42761;BME280;31672;47.638;19.026;2024-01-06T17:08:28;98863.09;;;5.83;100.00
42761;BME280;31672;47.638;19.026;2024-01-06T17:13:31;98855.50;;;5.80;100.00
42761;BME280;31672;47.638;19.026;2024-01-06T17:18:35;98855.19;;;5.83;100.00
42761;BME280;31672;47.638;19.026;2024-01-06T17:23:38;98864.72;;;5.84;100.00
42761;BME280;31672;47.638;19.026;2024-01-06T17:28:42;98870.81;;;5.84;100.00
42761;BME280;31672;47.638;19.026;2024-01-06T17:33:45;98874.09;;;5.86;100.00
42761;BME280;31672;47.638;19.026;2024-01-06T17:38:49;98860.91;;;5.86;100.00
42761;BME280;31672;47.638;19.026;2024-01-06T17:43:53;98856.63;;;5.85;100.00
42761;BME280;31672;47.638;19.026;2024-01-06T17:48:59;98861.91;;;5.85;100.00
42761;BME280;31672;47.638;19.026;2024-01-06T17:54:03;98867.00;;;5.87;100.00
42761;BME280;31672;47.638;19.026;2024-01-06T17:59:07;98866.38;;;5.85;100.00
42761;BME280;31672;47.638;19.026;2024-01-06T18:04:10;98862.41;;;5.89;100.00
42761;BME280;31672;47.638;19.026;2024-01-06T18:09:14;98856.31;;;5.88;100.00
42761;BME280;31672;47.638;19.026;2024-01-06T18:14:22;98853.69;;;5.88;100.00
42761;BME280;31672;47.638;19.026;2024-01-06T18:19:26;98857.13;;;5.89;100.00
42761;BME280;31672;47.638;19.026;2024-01-06T18:24:31;98851.03;;;5.88;100.00
42761;BME280;31672;47.638;19.026;2024-01-06T18:29:35;98854.50;;;5.89;100.00
42761;BME280;31672;47.638;19.026;2024-01-06T18:34:40;98856.31;;;5.88;100.00
42761;BME280;31672;47.638;19.026;2024-01-06T18:39:48;98855.63;;;5.86;100.00
42761;BME280;31672;47.638;19.026;2024-01-06T18:44:52;98850.22;;;5.88;100.00
42761;BME280;31672;47.638;19.026;2024-01-06T18:49:56;98843.44;;;5.85;100.00
42761;BME280;31672;47.638;19.026;2024-01-06T18:55:01;98845.09;;;5.86;100.00
42761;BME280;31672;47.638;19.026;2024-01-06T19:00:06;98842.44;;;5.86;100.00
42761;BME280;31672;47.638;19.026;2024-01-06T19:05:11;98841.63;;;5.86;100.00
42761;BME280;31672;47.638;19.026;2024-01-06T19:10:15;98831.28;;;5.84;100.00
42761;BME280;31672;47.638;19.026;2024-01-06T19:15:19;98832.25;;;5.83;100.00
42761;BME280;31672;47.638;19.026;2024-01-06T19:20:22;98828.63;;;5.84;100.00
42761;BME280;31672;47.638;19.026;2024-01-06T19:25:27;98835.72;;;5.84;100.00
42761;BME280;31672;47.638;19.026;2024-01-06T19:30:31;98818.91;;;5.85;100.00
42761;BME280;31672;47.638;19.026;2024-01-06T19:35:34;98819.91;;;5.84;100.00
42761;BME280;31672;47.638;19.026;2024-01-06T19:40:38;98814.63;;;5.84;100.00
42761;BME280;31672;47.638;19.026;2024-01-06T19:45:42;98819.91;;;5.84;100.00
42761;BME280;31672;47.638;19.026;2024-01-06T19:50:46;98815.28;;;5.86;100.00
42761;BME280;31672;47.638;19.026;2024-01-06T19:55:49;98813.63;;;5.85;100.00
42761;BME280;31672;47.638;19.026;2024-01-06T20:00:53;98815.28;;;5.86;100.00
42761;BME280;31672;47.638;19.026;2024-01-06T20:05:57;98808.38;;;5.85;100.00
42761;BME280;31672;47.638;19.026;2024-01-06T20:11:00;98809.34;;;5.84;100.00
42761;BME280;31672;47.638;19.026;2024-01-06T20:16:05;98807.19;;;5.87;100.00
42761;BME280;31672;47.638;19.026;2024-01-06T20:21:12;98803.91;;;5.85;100.00
42761;BME280;31672;47.638;19.026;2024-01-06T20:26:17;98799.63;;;5.84;100.00
42761;BME280;31672;47.638;19.026;2024-01-06T20:31:20;98799.44;;;5.86;100.00
42761;BME280;31672;47.638;19.026;2024-01-06T20:36:24;98786.28;;;5.86;100.00
42761;BME280;31672;47.638;19.026;2024-01-06T20:41:28;98787.09;;;5.86;100.00
42761;BME280;31672;47.638;19.026;2024-01-06T20:46:31;98788.41;;;5.90;100.00
42761;BME280;31672;47.638;19.026;2024-01-06T20:51:34;98778.03;;;5.89;100.00
42761;BME280;31672;47.638;19.026;2024-01-06T20:56:38;98783.31;;;5.89;100.00
42761;BME280;31672;47.638;19.026;2024-01-06T21:01:42;98777.22;;;5.88;100.00
42761;BME280;31672;47.638;19.026;2024-01-06T21:06:46;98777.22;;;5.88;100.00
42761;BME280;31672;47.638;19.026;2024-01-06T21:11:52;98782.16;;;5.92;100.00
42761;BME280;31672;47.638;19.026;2024-01-06T21:16:57;98777.69;;;5.92;100.00
42761;BME280;31672;47.638;19.026;2024-01-06T21:22:01;98778.69;;;5.91;100.00
42761;BME280;31672;47.638;19.026;2024-01-06T21:27:05;98774.06;;;5.93;100.00
42761;BME280;31672;47.638;19.026;2024-01-06T21:32:09;98774.06;;;5.93;100.00
42761;BME280;31672;47.638;19.026;2024-01-06T21:37:13;98772.75;;;5.89;100.00
42761;BME280;31672;47.638;19.026;2024-01-06T21:42:16;98765.53;;;5.91;100.00
42761;BME280;31672;47.638;19.026;2024-01-06T21:47:20;98757.63;;;5.91;100.00
42761;BME280;31672;47.638;19.026;2024-01-06T21:52:23;98764.53;;;5.92;100.00
42761;BME280;31672;47.638;19.026;2024-01-06T21:57:27;98754.13;;;5.90;100.00
42761;BME280;31672;47.638;19.026;2024-01-06T22:02:31;98755.63;;;5.93;100.00
42761;BME280;31672;47.638;19.026;2024-01-06T22:07:34;98745.06;;;5.93;100.00
42761;BME280;31672;47.638;19.026;2024-01-06T22:12:38;98737.16;;;5.93;100.00
42761;BME280;31672;47.638;19.026;2024-01-06T22:17:42;98737.16;;;5.93;100.00
42761;BME280;31672;47.638;19.026;2024-01-06T22:22:46;98738.81;;;5.94;100.00
42761;BME280;31672;47.638;19.026;2024-01-06T22:27:50;98737.34;;;5.92;100.00
42761;BME280;31672;47.638;19.026;2024-01-06T22:32:53;98740.13;;;5.90;100.00
42761;BME280;31672;47.638;19.026;2024-01-06T22:37:57;98741.94;;;5.89;100.00
42761;BME280;31672;47.638;19.026;2024-01-06T22:43:01;98746.22;;;5.90;100.00
42761;BME280;31672;47.638;19.026;2024-01-06T22:48:05;98745.25;;;5.92;100.00
42761;BME280;31672;47.638;19.026;2024-01-06T22:53:08;98741.63;;;5.93;100.00
42761;BME280;31672;47.638;19.026;2024-01-06T22:58:12;98736.19;;;5.86;100.00
42761;BME280;31672;47.638;19.026;2024-01-06T23:03:15;98737.19;;;5.85;100.00
42761;BME280;31672;47.638;19.026;2024-01-06T23:08:20;98745.56;;;5.88;100.00
42761;BME280;31672;47.638;19.026;2024-01-06T23:13:23;98731.91;;;5.85;100.00
42761;BME280;31672;47.638;19.026;2024-01-06T23:18:27;98737.81;;;5.87;100.00
42761;BME280;31672;47.638;19.026;2024-01-06T23:23:31;98729.63;;;5.82;100.00
42761;BME280;31672;47.638;19.026;2024-01-06T23:28:35;98727.16;;;5.80;100.00
42761;BME280;31672;47.638;19.026;2024-01-06T23:33:40;98721.25;;;5.78;100.00
42761;BME280;31672;47.638;19.026;2024-01-06T23:38:43;98732.41;;;5.80;100.00
42761;BME280;31672;47.638;19.026;2024-01-06T23:43:47;98728.50;;;5.76;100.00
42761;BME280;31672;47.638;19.026;2024-01-06T23:48:52;98726.84;;;5.75;100.00
42761;BME280;31672;47.638;19.026;2024-01-06T23:53:56;98736.56;;;5.75;100.00
42761;BME280;31672;47.638;19.026;2024-01-06T23:59:01;98733.94;;;5.75;100.00
